Time;durP1;ratioP1;P1;durP2;ratioP2;P2;SDS_P1;SDS_P2;PMS_P1;PMS_P2;Temp;Humidity;BMP_temperature;BMP_pressure;BME280_temperature;BME280_humidity;BME280_pressure;Samples;Min_cycle;Max_cycle;Signal;HPM_P1;HPM_P2
2023/06/05 00:01:40;;;;;;;3.60;1.40;;;;;;;10.52;100.00;101720.83;107482;1279;58290;-80
2023/06/05 00:04:06;;;;;;;4.80;1.50;;;;;;;10.48;100.00;101722.66;107515;1279;58266;-81
2023/06/05 00:06:31;;;;;;;1.90;1.40;;;;;;;10.46;100.00;101721.83;107493;1279;58263;-81
2023/06/05 00:08:58;;;;;;;3.80;1.50;;;;;;;10.42;100.00;101721.92;107476;1278;58417;-81
2023/06/05 00:11:23;;;;;;;5.30;1.50;;;;;;;10.36;100.00;101723.30;107467;1279;61092;-81
2023/06/05 00:13:49;;;;;;;4.10;1.70;;;;;;;10.27;100.00;101718.48;107484;1279;58261;-80
2023/06/05 00:16:18;;;;;;;2.40;1.70;;;;;;;10.23;100.00;101714.10;107479;1279;58295;-80
2023/06/05 00:18:46;;;;;;;3.30;1.40;;;;;;;10.22;100.00;101715.77;107480;1279;73614;-81
2023/06/05 00:21:13;;;;;;;3.70;1.50;;;;;;;10.21;100.00;101709.12;107437;1279;62010;-80
2023/06/05 00:23:38;;;;;;;2.60;1.60;;;;;;;10.20;100.00;101709.91;107051;1279;61105;-80
2023/06/05 00:26:04;;;;;;;2.60;1.70;;;;;;;10.19;100.00;101708.64;107206;1279;58367;-80
2023/06/05 00:28:29;;;;;;;7.10;1.80;;;;;;;10.11;100.00;101712.46;107493;1279;58252;-80
2023/06/05 00:30:55;;;;;;;5.30;1.60;;;;;;;10.04;100.00;101715.95;107427;1279;58224;-80
2023/06/05 00:33:20;;;;;;;7.30;1.70;;;;;;;10.00;100.00;101713.59;107497;1279;58287;-81
2023/06/05 00:35:46;;;;;;;2.80;1.70;;;;;;;9.95;100.00;101711.72;107448;1279;73712;-80
2023/06/05 00:38:11;;;;;;;2.00;1.50;;;;;;;9.86;100.00;101710.71;107142;1279;58337;-81
2023/06/05 00:40:37;;;;;;;3.40;1.60;;;;;;;9.74;100.00;101716.26;107463;1279;58184;-80
2023/06/05 00:43:02;;;;;;;3.40;1.40;;;;;;;9.64;100.00;101715.10;107508;1279;58260;-80
2023/06/05 00:45:28;;;;;;;5.70;1.70;;;;;;;9.56;100.00;101719.46;107549;1279;58651;-80
2023/06/05 00:47:54;;;;;;;2.80;1.40;;;;;;;9.47;100.00;101718.39;107340;1279;73292;-80
2023/06/05 00:50:24;;;;;;;2.10;1.60;;;;;;;9.42;100.00;101720.56;107482;1279;58454;-81
2023/06/05 00:52:51;;;;;;;2.40;1.50;;;;;;;9.38;100.00;101719.36;107448;1279;62209;-80
2023/06/05 00:55:17;;;;;;;4.00;1.70;;;;;;;9.36;100.00;101714.95;107455;1279;61131;-80
2023/06/05 00:57:44;;;;;;;2.70;1.70;;;;;;;9.30;100.00;101709.52;107108;1279;58589;-80
2023/06/05 01:00:12;;;;;;;2.50;1.60;;;;;;;9.23;100.00;101705.42;107356;1279;58383;-80
2023/06/05 01:02:39;;;;;;;3.10;1.70;;;;;;;9.23;100.00;101709.42;107426;1279;73677;-80
2023/06/05 01:05:05;;;;;;;4.70;1.60;;;;;;;9.18;100.00;101711.67;107453;1279;61772;-80
2023/06/05 01:07:38;;;;;;;2.20;1.40;;;;;;;9.07;100.00;101714.92;107466;1279;58530;-80
2023/06/05 01:10:05;;;;;;;3.70;1.50;;;;;;;8.97;100.00;101711.46;107466;1279;73869;-80
2023/06/05 01:12:53;;;;;;;2.40;1.30;;;;;;;8.94;100.00;101716.63;107488;1279;74273;-80
2023/06/05 01:15:28;;;;;;;8.80;1.80;;;;;;;8.92;100.00;101714.38;107469;1279;72576;-81
2023/06/05 01:17:58;;;;;;;3.90;1.50;;;;;;;8.90;100.00;101714.30;106970;1279;61097;-80
2023/06/05 01:20:32;;;;;;;4.80;1.70;;;;;;;8.81;100.00;101712.19;107477;1279;60218;-80
2023/06/05 01:22:58;;;;;;;3.50;1.70;;;;;;;8.72;100.00;101706.70;107497;1279;75068;-80
2023/06/05 01:25:23;;;;;;;3.40;1.60;;;;;;;8.68;100.00;101708.75;107459;1279;58452;-80
2023/06/05 01:28:07;;;;;;;3.50;1.70;;;;;;;8.63;100.00;101706.34;106985;1279;58296;-80
2023/06/05 01:30:53;;;;;;;5.10;1.90;;;;;;;8.59;100.00;101703.63;107423;1279;62054;-80
2023/06/05 01:33:52;;;;;;;3.70;1.70;;;;;;;8.59;100.00;101702.66;107447;1279;60152;-80
2023/06/05 01:36:18;;;;;;;4.80;1.90;;;;;;;8.57;100.00;101705.73;107467;1279;73710;-80
2023/06/05 01:38:45;;;;;;;4.90;2.10;;;;;;;8.57;100.00;101706.16;107451;1279;58359;-80
2023/06/05 01:41:12;;;;;;;3.10;1.50;;;;;;;8.54;100.00;101707.13;107462;1279;72500;-80
2023/06/05 01:43:39;;;;;;;3.70;1.70;;;;;;;8.54;100.00;101705.64;107442;1278;61934;-80
2023/06/05 01:46:09;;;;;;;3.50;1.60;;;;;;;8.52;100.00;101705.36;107475;1279;60846;-80
2023/06/05 01:48:35;;;;;;;6.00;1.80;;;;;;;8.51;100.00;101705.70;107467;1279;73903;-80
2023/06/05 01:51:01;;;;;;;5.20;1.70;;;;;;;8.49;100.00;101704.77;107466;1279;58366;-80
2023/06/05 01:53:27;;;;;;;6.90;1.80;;;;;;;8.48;100.00;101706.14;107433;1279;59102;-80
2023/06/05 01:55:57;;;;;;;2.60;1.60;;;;;;;8.48;100.00;101708.13;107432;1278;58180;-80
2023/06/05 01:58:24;;;;;;;2.40;1.50;;;;;;;8.49;100.00;101712.16;106986;1279;60094;-80
2023/06/05 02:00:50;;;;;;;4.40;1.90;;;;;;;8.49;100.00;101717.75;107459;1279;73487;-80
2023/06/05 02:03:16;;;;;;;3.00;1.70;;;;;;;8.48;100.00;101718.42;107330;1279;58301;-80
2023/06/05 02:05:42;;;;;;;5.30;2.10;;;;;;;8.48;100.00;101719.20;107276;1279;58450;-80
2023/06/05 02:08:09;;;;;;;4.80;1.80;;;;;;;8.53;100.00;101721.36;107423;1279;58215;-80
2023/06/05 02:10:35;;;;;;;4.00;1.90;;;;;;;8.59;100.00;101723.48;107489;1279;59122;-80
2023/06/05 02:13:00;;;;;;;2.70;1.90;;;;;;;8.63;100.00;101723.67;107483;1278;58285;-80
2023/06/05 02:15:26;;;;;;;4.00;1.80;;;;;;;8.69;100.00;101721.86;107472;1279;58264;-80
2023/06/05 02:17:53;;;;;;;5.80;2.10;;;;;;;8.75;100.00;101717.25;107493;1279;58200;-80
2023/06/05 02:20:22;;;;;;;5.70;2.10;;;;;;;8.83;100.00;101721.83;107458;1279;60995;-80
2023/06/05 02:22:51;;;;;;;6.70;2.20;;;;;;;8.88;100.00;101723.38;107477;1279;74552;-81
2023/06/05 02:25:18;;;;;;;9.80;1.90;;;;;;;8.94;100.00;101728.84;107442;1279;74219;-80
2023/06/05 02:27:44;;;;;;;4.40;2.30;;;;;;;9.03;100.00;101730.52;107273;1280;72410;-80
2023/06/05 02:30:11;;;;;;;3.10;1.80;;;;;;;9.13;100.00;101729.48;106982;1279;58348;-80
2023/06/05 02:32:41;;;;;;;5.90;1.80;;;;;;;9.27;100.00;101732.55;107004;1279;58507;-80
2023/06/05 02:35:08;;;;;;;4.80;1.70;;;;;;;9.42;100.00;101733.02;107317;1279;74603;-80
2023/06/05 02:37:43;;;;;;;3.80;1.80;;;;;;;9.52;100.00;101727.89;107485;1279;73402;-80
2023/06/05 02:40:10;;;;;;;5.00;1.80;;;;;;;9.72;100.00;101726.32;107246;1279;73717;-80
2023/06/05 02:42:36;;;;;;;4.60;1.90;;;;;;;9.95;100.00;101731.06;107424;1279;61814;-80
2023/06/05 02:45:03;;;;;;;3.60;1.80;;;;;;;10.23;100.00;101733.39;107444;1279;58302;-80
2023/06/05 02:47:29;;;;;;;5.70;1.70;;;;;;;10.64;100.00;101733.48;107453;1279;74542;-81
2023/06/05 02:49:55;;;;;;;3.50;1.70;;;;;;;11.20;100.00;101732.94;106883;1284;59057;-81
2023/06/05 02:52:21;;;;;;;6.30;1.50;;;;;;;11.77;100.00;101733.13;106887;1284;58605;-81
2023/06/05 02:54:47;;;;;;;3.10;1.60;;;;;;;12.13;100.00;101729.05;106945;1284;58348;-80
2023/06/05 02:57:13;;;;;;;5.70;1.60;;;;;;;12.29;100.00;101724.52;106910;1284;58314;-81
2023/06/05 02:59:39;;;;;;;3.40;1.80;;;;;;;12.38;100.00;101728.95;106689;1284;58464;-81
2023/06/05 03:02:08;;;;;;;4.70;2.00;;;;;;;12.42;100.00;101727.77;106848;1285;58638;-80
2023/06/05 03:04:34;;;;;;;3.40;1.80;;;;;;;12.50;100.00;101725.33;106885;1285;58560;-81
2023/06/05 03:07:03;;;;;;;4.40;2.00;;;;;;;12.62;100.00;101729.47;106933;1284;58377;-80
2023/06/05 03:09:32;;;;;;;6.40;2.10;;;;;;;12.75;100.00;101727.89;106856;1285;59778;-81
2023/06/05 03:11:58;;;;;;;5.80;2.40;;;;;;;12.95;100.00;101722.46;106900;1285;73598;-81
2023/06/05 03:14:26;;;;;;;6.40;2.30;;;;;;;13.32;100.00;101725.71;106883;1284;58227;-81
2023/06/05 03:16:53;;;;;;;5.10;2.30;;;;;;;13.88;100.00;101722.71;106829;1285;72954;-81
2023/06/05 03:19:19;;;;;;;7.60;2.40;;;;;;;14.58;100.00;101724.98;106885;1283;62031;-81
2023/06/05 03:21:45;;;;;;;4.80;2.10;;;;;;;15.23;100.00;101722.58;107306;1279;58499;-81
2023/06/05 03:24:15;;;;;;;4.40;1.90;;;;;;;15.84;100.00;101717.59;107451;1279;58321;-81
2023/06/05 03:26:41;;;;;;;4.40;2.20;;;;;;;16.42;100.00;101715.69;107472;1279;74293;-81
2023/06/05 03:29:07;;;;;;;3.40;2.20;;;;;;;16.98;100.00;101711.92;107458;1279;59025;-81
2023/06/05 03:31:35;;;;;;;4.20;2.10;;;;;;;17.53;100.00;101713.45;107459;1279;58513;-81
2023/06/05 03:34:02;;;;;;;5.70;2.40;;;;;;;17.95;100.00;101713.77;107479;1279;59497;-81
2023/06/05 03:36:28;;;;;;;4.90;2.30;;;;;;;18.51;99.45;101717.13;107449;1279;74541;-81
2023/06/05 03:38:54;;;;;;;7.50;3.10;;;;;;;18.89;94.68;101716.50;107415;1279;58231;-81
2023/06/05 03:41:20;;;;;;;6.90;2.10;;;;;;;19.24;92.05;101712.80;107427;1279;58158;-82
2023/06/05 03:43:46;;;;;;;4.50;2.40;;;;;;;19.60;87.71;101711.92;107414;1279;58203;-82
2023/06/05 03:46:17;;;;;;;6.50;2.70;;;;;;;20.02;85.69;101708.19;107088;1280;58780;-82
2023/06/05 03:48:43;;;;;;;6.00;2.60;;;;;;;20.46;80.72;101711.73;107425;1280;73620;-82
2023/06/05 03:51:09;;;;;;;5.90;2.80;;;;;;;20.77;77.90;101707.84;107534;1279;58236;-81
2023/06/05 03:53:39;;;;;;;6.70;2.60;;;;;;;21.15;75.13;101713.11;107276;1280;58188;-81
2023/06/05 03:56:06;;;;;;;4.70;2.40;;;;;;;21.55;73.18;101710.30;107257;1280;59957;-82
2023/06/05 03:58:32;;;;;;;4.80;2.60;;;;;;;21.94;71.14;101708.23;107495;1279;61275;-82
2023/06/05 04:00:58;;;;;;;5.70;2.30;;;;;;;22.46;68.13;101707.96;107008;1279;58500;-81
2023/06/05 04:03:25;;;;;;;7.00;2.70;;;;;;;22.57;64.74;101706.43;107323;1280;58678;-81
2023/06/05 04:05:50;;;;;;;6.80;2.50;;;;;;;22.72;62.31;101706.15;107452;1280;58815;-81
2023/06/05 04:08:16;;;;;;;5.80;2.90;;;;;;;22.80;60.57;101710.33;107460;1279;58185;-80
2023/06/05 04:10:42;;;;;;;15.40;2.80;;;;;;;22.85;58.10;101712.74;107475;1279;58208;-81
2023/06/05 04:13:10;;;;;;;5.50;2.80;;;;;;;22.85;57.51;101711.59;107508;1279;58211;-81
2023/06/05 04:15:36;;;;;;;14.10;3.10;;;;;;;22.99;56.52;101709.70;106946;1280;72545;-81
2023/06/05 04:18:02;;;;;;;7.70;3.20;;;;;;;23.08;55.03;101714.98;107485;1279;58278;-81
2023/06/05 04:20:28;;;;;;;12.00;3.00;;;;;;;23.36;54.68;101714.54;107458;1279;58676;-81
2023/06/05 04:22:53;;;;;;;8.20;3.50;;;;;;;23.54;52.97;101711.86;107447;1279;59382;-81
2023/06/05 04:25:19;;;;;;;4.80;2.60;;;;;;;23.62;52.72;101710.98;107484;1279;58757;-81
2023/06/05 04:27:48;;;;;;;8.30;2.80;;;;;;;23.78;51.57;101704.64;107304;1280;58328;-81
2023/06/05 04:30:14;;;;;;;5.70;2.40;;;;;;;23.70;49.72;101706.30;107498;1279;60852;-81
2023/06/05 04:32:41;;;;;;;6.20;2.50;;;;;;;23.70;49.91;101707.51;107463;1279;58247;-81
2023/06/05 04:35:08;;;;;;;5.50;2.50;;;;;;;23.89;49.68;101710.59;107488;1279;73225;-81
2023/06/05 04:37:36;;;;;;;9.30;3.00;;;;;;;24.10;49.35;101710.75;107438;1279;73467;-81
2023/06/05 04:40:05;;;;;;;10.50;2.70;;;;;;;24.27;48.50;101708.86;107441;1279;61505;-81
2023/06/05 04:42:36;;;;;;;4.70;2.60;;;;;;;24.48;48.29;101709.73;107452;1279;61251;-81
2023/06/05 04:45:04;;;;;;;8.20;2.90;;;;;;;24.96;48.99;101708.70;107472;1279;74533;-81
2023/06/05 04:47:31;;;;;;;12.40;2.60;;;;;;;25.40;47.47;101711.61;107461;1279;74466;-80
2023/06/05 04:50:03;;;;;;;6.70;2.70;;;;;;;25.24;46.82;101711.67;107279;1280;72843;-81
2023/06/05 04:52:30;;;;;;;4.30;2.50;;;;;;;25.51;47.70;101714.65;107413;1279;60046;-81
2023/06/05 04:54:56;;;;;;;4.70;2.60;;;;;;;26.30;47.55;101713.33;107439;1279;59977;-81
2023/06/05 04:57:24;;;;;;;6.40;3.00;;;;;;;26.75;45.97;101710.66;107122;1280;58299;-81
2023/06/05 04:59:50;;;;;;;9.30;2.60;;;;;;;27.08;45.27;101716.05;107464;1279;73749;-81
2023/06/05 05:02:16;;;;;;;5.00;2.80;;;;;;;27.42;44.12;101717.29;107453;1279;72309;-81
2023/06/05 05:04:42;;;;;;;5.60;2.50;;;;;;;27.42;43.11;101716.93;106659;1287;58416;-82
2023/06/05 05:07:13;;;;;;;4.60;2.70;;;;;;;27.83;43.90;101719.44;106645;1287;58337;-81
2023/06/05 05:09:38;;;;;;;4.60;2.10;;;;;;;28.29;42.84;101724.21;106671;1286;74775;-81
2023/06/05 05:12:04;;;;;;;7.60;2.60;;;;;;;28.38;41.25;101724.85;106323;1288;58535;-81
2023/06/05 05:14:30;;;;;;;7.10;2.60;;;;;;;27.92;40.03;101726.84;106268;1287;58388;-81
2023/06/05 05:16:55;;;;;;;6.10;2.50;;;;;;;27.43;39.86;101727.55;106644;1286;58632;-82
2023/06/05 05:19:24;;;;;;;4.10;2.60;;;;;;;27.40;39.76;101731.23;106706;1286;58330;-82
2023/06/05 05:21:49;;;;;;;4.60;2.30;;;;;;;27.26;39.12;101731.27;106665;1287;58235;-81
2023/06/05 05:24:17;;;;;;;3.00;2.20;;;;;;;27.45;40.22;101730.69;106644;1286;58330;-80
2023/06/05 05:26:43;;;;;;;5.30;2.70;;;;;;;28.02;39.62;101733.39;106557;1288;58779;-81
2023/06/05 05:29:09;;;;;;;8.60;3.10;;;;;;;28.14;39.40;101734.88;106630;1286;58525;-80
2023/06/05 05:31:35;;;;;;;9.50;3.10;;;;;;;28.71;39.76;101730.97;106636;1288;58351;-81
2023/06/05 05:34:01;;;;;;;6.00;2.60;;;;;;;29.35;38.44;101730.70;106526;1286;58303;-81
2023/06/05 05:36:27;;;;;;;5.40;2.30;;;;;;;29.82;37.41;101728.95;107161;1279;58295;-81
2023/06/05 05:38:56;;;;;;;5.60;2.50;;;;;;;29.99;37.12;101733.91;107173;1279;58839;-80
2023/06/05 05:41:22;;;;;;;8.00;2.50;;;;;;;30.03;35.86;101732.98;107272;1279;60021;-81
2023/06/05 05:43:48;;;;;;;7.90;2.50;;;;;;;30.31;36.01;101735.14;107322;1280;58520;-78
2023/06/05 05:46:13;;;;;;;3.60;2.20;;;;;;;30.88;36.05;101730.55;107277;1280;58349;-80
2023/06/05 05:48:39;;;;;;;8.70;2.50;;;;;;;31.20;34.64;101728.87;107344;1279;58198;-80
2023/06/05 05:51:06;;;;;;;4.70;2.30;;;;;;;31.22;33.55;101728.35;107028;1282;58483;-80
2023/06/05 05:53:31;;;;;;;4.40;2.30;;;;;;;31.01;33.22;101725.15;106922;1282;58326;-80
2023/06/05 05:55:57;;;;;;;4.60;2.30;;;;;;;31.29;33.33;101726.70;107003;1282;59148;-80
2023/06/05 05:58:22;;;;;;;4.60;2.30;;;;;;;31.56;32.97;101725.07;107065;1282;58413;-81
2023/06/05 06:00:48;;;;;;;4.40;2.40;;;;;;;31.67;32.09;101724.35;107003;1282;58330;-80
2023/06/05 06:03:14;;;;;;;6.60;2.40;;;;;;;31.06;30.87;101723.46;107002;1282;59335;-80
2023/06/05 06:05:40;;;;;;;4.80;2.30;;;;;;;30.76;31.54;101719.85;107017;1282;58626;-80
2023/06/05 06:08:06;;;;;;;2.80;2.20;;;;;;;30.98;31.36;101720.33;106997;1282;58237;-80
2023/06/05 06:10:32;;;;;;;6.50;2.10;;;;;;;31.45;31.55;101720.27;107008;1282;58770;-80
2023/06/05 06:12:58;;;;;;;6.10;2.00;;;;;;;31.97;30.99;101721.00;106727;1282;58591;-80
2023/06/05 06:15:23;;;;;;;5.40;2.20;;;;;;;31.93;30.22;101723.59;107062;1282;58743;-80
2023/06/05 06:17:49;;;;;;;10.80;2.10;;;;;;;31.67;30.27;101717.41;106985;1282;73412;-80
2023/06/05 06:20:15;;;;;;;5.10;2.10;;;;;;;32.01;30.05;101724.98;107002;1282;58267;-79
2023/06/05 06:22:42;;;;;;;3.90;2.00;;;;;;;31.36;28.79;101719.65;107206;1280;58232;-80
2023/06/05 06:25:12;;;;;;;3.10;2.10;;;;;;;30.41;29.62;101719.67;107470;1279;58291;-82
2023/06/05 06:27:38;;;;;;;4.60;2.60;;;;;;;30.57;30.11;101717.27;106899;1285;74596;-82
2023/06/05 06:30:05;;;;;;;5.60;2.10;;;;;;;31.01;30.26;101720.84;106889;1285;70457;-79
2023/06/05 06:32:30;;;;;;;5.40;2.40;;;;;;;31.45;29.52;101719.95;106879;1285;58330;-79
2023/06/05 06:34:57;;;;;;;3.50;2.00;;;;;;;31.07;28.84;101714.74;106869;1286;58232;-79
2023/06/05 06:37:23;;;;;;;3.80;2.30;;;;;;;31.08;29.53;101712.29;106885;1284;58546;-79
2023/06/05 06:39:49;;;;;;;2.60;2.00;;;;;;;31.87;29.23;101711.77;106762;1286;58339;-80
2023/06/05 06:42:15;;;;;;;3.60;2.00;;;;;;;32.02;29.08;101708.65;106827;1284;58342;-80
2023/06/05 06:44:41;;;;;;;3.90;1.90;;;;;;;32.25;28.57;101714.50;106742;1286;58229;-81
2023/06/05 06:47:08;;;;;;;5.00;1.80;;;;;;;32.03;28.59;101715.58;106843;1285;58269;-81
2023/06/05 06:49:38;;;;;;;3.10;2.20;;;;;;;32.54;28.76;101712.41;106917;1283;58253;-80
2023/06/05 06:52:03;;;;;;;3.20;2.00;;;;;;;32.80;28.12;101711.80;106866;1284;74250;-81
2023/06/05 06:54:29;;;;;;;5.10;1.90;;;;;;;33.61;28.01;101710.08;106659;1285;58331;-80
2023/06/05 06:56:56;;;;;;;2.70;1.90;;;;;;;33.73;27.50;101704.73;106823;1283;58421;-80
2023/06/05 06:59:22;;;;;;;4.30;1.80;;;;;;;34.04;27.26;101705.81;106938;1285;58693;-81
2023/06/05 07:02:09;;;;;;;4.30;2.20;;;;;;;34.30;25.58;101714.46;106952;1284;58259;-82
2023/06/05 07:04:35;;;;;;;5.90;2.50;;;;;;;33.27;24.83;101721.34;106999;1280;74710;-81
2023/06/05 07:07:01;;;;;;;19.50;3.80;;;;;;;32.89;25.43;101718.34;107200;1279;58412;-80
2023/06/05 07:09:27;;;;;;;6.00;2.00;;;;;;;33.48;26.52;101714.78;107411;1279;58260;-80
2023/06/05 07:11:54;;;;;;;2.20;1.70;;;;;;;34.32;25.72;101711.42;107478;1279;58219;-81
2023/06/05 07:14:20;;;;;;;4.40;2.00;;;;;;;33.89;25.14;101710.63;107529;1279;58910;-81
2023/06/05 07:16:45;;;;;;;2.20;1.60;;;;;;;34.16;26.71;101706.65;107288;1279;58192;-80
2023/06/05 07:19:12;;;;;;;4.40;2.00;;;;;;;34.95;25.80;101705.91;107003;1279;58315;-80
2023/06/05 07:21:40;;;;;;;2.90;1.80;;;;;;;35.48;25.39;101702.17;107443;1279;58147;-81
2023/06/05 07:24:06;;;;;;;6.50;1.70;;;;;;;35.36;23.67;101705.16;107449;1280;58306;-80
2023/06/05 07:26:32;;;;;;;9.20;1.80;;;;;;;34.19;23.41;101705.71;107081;1280;58459;-81
2023/06/05 07:28:57;;;;;;;5.30;2.10;;;;;;;33.63;23.62;101708.81;107246;1279;58621;-81
2023/06/05 07:31:30;;;;;;;8.70;1.50;;;;;;;33.47;24.12;101706.15;107469;1279;58256;-81
2023/06/05 07:33:55;;;;;;;1.60;1.50;;;;;;;34.16;24.81;101696.59;107428;1279;73253;-81
2023/06/05 07:36:22;;;;;;;5.70;1.80;;;;;;;34.43;23.80;101701.45;107443;1279;58277;-81
2023/06/05 07:38:48;;;;;;;5.70;1.60;;;;;;;33.22;23.28;101707.10;107516;1279;58244;-81
2023/06/05 07:41:14;;;;;;;4.60;1.50;;;;;;;32.24;23.52;101709.36;107484;1283;58229;-81
2023/06/05 07:43:42;;;;;;;3.60;1.40;;;;;;;31.83;25.36;101712.54;107252;1280;58377;-81
2023/06/05 07:46:08;;;;;;;7.80;1.70;;;;;;;32.56;25.25;101708.11;107510;1279;58295;-80
2023/06/05 07:48:35;;;;;;;2.30;1.40;;;;;;;32.47;24.82;101707.30;107498;1279;58154;-80
2023/06/05 07:51:01;;;;;;;2.40;1.50;;;;;;;32.23;24.75;101711.44;107504;1279;58139;-81
2023/06/05 07:53:26;;;;;;;2.20;1.40;;;;;;;32.37;24.61;101708.72;107141;1280;58327;-80
2023/06/05 07:55:52;;;;;;;2.50;1.30;;;;;;;32.09;24.14;101708.56;107455;1283;58542;-80
2023/06/05 07:58:18;;;;;;;4.70;1.40;;;;;;;31.96;24.67;101706.98;107458;1279;58313;-81
2023/06/05 08:00:47;;;;;;;2.90;1.60;;;;;;;32.41;25.27;101704.21;107047;1280;59223;-81
2023/06/05 08:03:19;;;;;;;3.70;1.30;;;;;;;33.29;24.75;101699.34;107510;1279;59158;-81
2023/06/05 08:05:49;;;;;;;1.80;1.40;;;;;;;33.86;24.06;101696.31;107441;1280;74434;-81
2023/06/05 08:08:18;;;;;;;1.20;1.10;;;;;;;34.08;24.17;101694.57;107474;1279;74447;-82
2023/06/05 08:10:44;;;;;;;2.60;1.50;;;;;;;34.57;24.38;101695.57;107484;1279;73375;-80
2023/06/05 08:13:10;;;;;;;6.90;2.20;;;;;;;34.75;23.70;101706.48;107089;1280;58281;-81
2023/06/05 08:15:36;;;;;;;5.70;1.60;;;;;;;34.20;23.41;101705.48;107104;1279;58652;-81
2023/06/05 08:18:02;;;;;;;4.10;1.70;;;;;;;33.58;23.54;101701.67;107284;1280;58360;-80
2023/06/05 08:20:28;;;;;;;5.10;1.70;;;;;;;33.13;24.46;101699.87;107481;1279;58258;-81
2023/06/05 08:22:57;;;;;;;7.00;1.40;;;;;;;33.31;24.84;101711.73;107372;1280;58558;-80
2023/06/05 08:25:41;;;;;;;4.00;1.40;;;;;;;33.16;23.96;101704.60;107268;1279;58240;-81
2023/06/05 08:28:10;;;;;;;3.60;1.60;;;;;;;32.75;24.20;101707.38;107480;1284;59902;-81
2023/06/05 08:30:35;;;;;;;6.60;1.70;;;;;;;32.50;24.92;101704.73;107465;1279;73477;-80
2023/06/05 08:33:02;;;;;;;5.70;2.10;;;;;;;31.88;24.86;101711.23;107224;1280;58409;-80
2023/06/05 08:35:28;;;;;;;7.30;1.60;;;;;;;31.36;24.91;101708.44;107003;1280;58226;-80
2023/06/05 08:37:56;;;;;;;3.60;1.60;;;;;;;31.38;25.30;101702.90;106832;1280;333804;-81
2023/06/05 08:40:25;;;;;;;1.90;1.40;;;;;;;31.37;25.55;101705.91;106658;1286;60012;-82
2023/06/05 08:42:51;;;;;;;4.80;1.70;;;;;;;31.24;25.44;101701.73;107010;1280;74580;-81
2023/06/05 08:45:17;;;;;;;2.40;1.40;;;;;;;31.25;26.16;101696.88;107251;1279;58956;-81
2023/06/05 08:47:46;;;;;;;3.70;1.40;;;;;;;31.63;26.14;101696.64;107467;1279;58386;-80
2023/06/05 08:50:12;;;;;;;2.20;1.40;;;;;;;30.87;25.91;101692.75;106977;1279;60987;-80
2023/06/05 08:52:42;;;;;;;3.60;1.30;;;;;;;30.09;26.59;101696.00;107506;1279;58424;-83
2023/06/05 08:55:11;;;;;;;2.90;1.30;;;;;;;30.03;27.11;101695.55;106964;1285;74683;-82
2023/06/05 08:57:42;;;;;;;6.30;1.50;;;;;;;30.50;27.23;101692.10;106969;1284;72694;-81
2023/06/05 09:00:12;;;;;;;6.80;2.00;;;;;;;31.08;26.98;101688.80;107475;1279;73595;-81
2023/06/05 09:02:39;;;;;;;2.10;1.60;;;;;;;31.48;25.98;101687.69;107476;1279;60056;-83
2023/06/05 09:05:05;;;;;;;3.00;1.80;;;;;;;31.37;26.10;101686.02;107489;1279;59949;-82
2023/06/05 09:07:31;;;;;;;1.80;1.30;;;;;;;31.77;26.06;101690.05;107488;1279;58215;-82
2023/06/05 09:09:57;;;;;;;3.30;1.20;;;;;;;31.52;25.43;101690.52;107141;1280;58369;-82
2023/06/05 09:12:24;;;;;;;3.20;1.30;;;;;;;31.68;25.84;101690.83;106926;1279;58271;-83
2023/06/05 09:14:50;;;;;;;4.70;1.50;;;;;;;32.04;25.66;101689.16;106989;1279;58192;-82
2023/06/05 09:17:17;;;;;;;2.50;1.20;;;;;;;32.27;24.88;101680.39;107164;1283;58382;-83
2023/06/05 09:19:43;;;;;;;4.10;1.20;;;;;;;31.93;25.08;101682.23;107215;1282;58584;-83
2023/06/05 09:22:10;;;;;;;1.60;1.10;;;;;;;31.21;25.36;101678.02;107063;1283;58366;-82
2023/06/05 09:24:37;;;;;;;1.60;1.10;;;;;;;30.28;25.94;101681.43;107117;1282;58626;-83
2023/06/05 09:27:08;;;;;;;6.30;1.20;;;;;;;30.08;26.27;101678.95;107161;1282;58267;-82
2023/06/05 09:29:36;;;;;;;3.80;1.40;;;;;;;30.54;26.18;101674.91;107012;1283;61018;-82
2023/06/05 09:32:09;;;;;;;2.30;1.10;;;;;;;30.73;25.99;101672.80;107154;1283;73524;-82
2023/06/05 09:34:37;;;;;;;3.90;1.20;;;;;;;30.53;26.08;101669.27;106831;1283;73669;-82
2023/06/05 09:37:07;;;;;;;2.50;1.10;;;;;;;30.41;26.35;101672.86;106903;1283;73513;-82
2023/06/05 09:39:38;;;;;;;1.40;1.10;;;;;;;30.47;26.29;101667.26;106996;1283;59775;-83
2023/06/05 09:42:04;;;;;;;4.10;1.40;;;;;;;30.45;26.00;101668.65;107135;1282;59151;-83
2023/06/05 09:44:34;;;;;;;9.30;1.50;;;;;;;29.83;26.59;101669.80;106744;1282;59188;-83
2023/06/05 09:47:05;;;;;;;5.00;1.40;;;;;;;29.07;26.44;101667.44;106739;1283;73567;-83
2023/06/05 09:49:32;;;;;;;6.40;1.50;;;;;;;28.42;27.34;101666.89;107028;1280;73661;-83
2023/06/05 09:52:00;;;;;;;2.40;1.10;;;;;;;28.43;27.33;101663.85;107342;1280;59060;-81
2023/06/05 09:54:30;;;;;;;6.80;1.40;;;;;;;28.71;27.53;101660.38;107084;1280;60138;-81
2023/06/05 09:57:01;;;;;;;14.20;1.50;;;;;;;28.93;27.87;101661.70;107389;1280;73278;-82
2023/06/05 09:59:32;;;;;;;2.40;1.20;;;;;;;29.03;27.94;101659.95;107335;1281;72131;-83
2023/06/05 10:02:04;;;;;;;1.70;1.30;;;;;;;28.81;27.91;101656.90;107377;1280;73484;-84
2023/06/05 10:04:37;;;;;;;4.40;1.20;;;;;;;28.72;27.87;101654.92;107213;1279;58903;-82
2023/06/05 10:07:04;;;;;;;2.60;1.20;;;;;;;28.90;28.08;101653.28;107349;1280;60112;-82
2023/06/05 10:09:33;;;;;;;8.10;1.30;;;;;;;28.60;26.97;101646.04;107391;1280;73762;-83
2023/06/05 10:11:59;;;;;;;3.20;1.30;;;;;;;27.86;28.21;101654.98;107365;1280;74329;-83
2023/06/05 10:14:25;;;;;;;9.60;1.30;;;;;;;27.77;28.19;101658.31;107355;1280;58307;-82
2023/06/05 10:16:52;;;;;;;5.30;1.20;;;;;;;27.82;28.76;101657.78;107357;1280;58523;-82
2023/06/05 10:19:21;;;;;;;2.20;1.10;;;;;;;27.27;27.79;101653.84;106839;1279;58362;-81
2023/06/05 10:21:48;;;;;;;25.40;2.70;;;;;;;26.27;28.90;101658.66;107427;1279;73684;-82
2023/06/05 10:24:21;;;;;;;3.40;1.20;;;;;;;25.70;29.60;101659.44;107454;1279;74779;-83
2023/06/05 10:26:56;;;;;;;11.30;2.10;;;;;;;25.73;30.04;101652.38;107520;1279;73224;-82
2023/06/05 10:29:40;;;;;;;5.70;1.90;;;;;;;26.29;30.20;101634.86;107483;1279;60326;-82
2023/06/05 10:32:28;;;;;;;4.20;1.30;;;;;;;26.31;30.22;101651.77;107470;1279;61669;-81
2023/06/05 10:34:59;;;;;;;2.40;1.40;;;;;;;26.63;30.03;101652.16;107462;1279;73708;-82
2023/06/05 10:37:47;;;;;;;11.00;1.70;;;;;;;26.68;29.44;101644.36;107529;1282;72966;-81
2023/06/05 10:40:16;;;;;;;3.50;1.40;;;;;;;26.80;29.48;101642.64;107490;1279;73543;-81
2023/06/05 10:42:42;;;;;;;17.00;2.20;;;;;;;26.80;29.90;101640.64;107262;1279;60137;-82
2023/06/05 10:45:09;;;;;;;5.80;1.30;;;;;;;26.63;29.99;101640.58;107484;1279;58274;-81
2023/06/05 10:47:37;;;;;;;3.00;1.10;;;;;;;26.61;30.56;101635.98;107485;1279;58270;-81
2023/06/05 10:50:19;;;;;;;10.30;1.30;;;;;;;26.96;30.34;101631.66;107542;1279;73196;-80
2023/06/05 10:52:48;;;;;;;3.80;1.30;;;;;;;27.12;29.66;101636.48;107378;1280;73315;-81
2023/06/05 10:55:17;;;;;;;2.20;1.20;;;;;;;27.00;30.01;101637.98;107495;1279;60101;-81
2023/06/05 10:58:02;;;;;;;3.90;1.30;;;;;;;26.68;29.83;101632.99;107254;1279;60982;-81
2023/06/05 11:00:29;;;;;;;9.50;1.50;;;;;;;26.44;30.26;101629.86;107511;1279;74554;-81
2023/06/05 11:02:54;;;;;;;4.00;1.20;;;;;;;26.50;30.97;101623.19;107476;1279;58396;-81
2023/06/05 11:05:20;;;;;;;3.40;1.20;;;;;;;26.99;31.77;101622.38;107485;1279;58520;-81
2023/06/05 11:07:46;;;;;;;6.00;1.20;;;;;;;27.66;31.73;101619.14;107512;1279;58239;-83
2023/06/05 11:10:25;;;;;;;3.10;1.30;;;;;;;28.19;30.65;101611.45;107120;1279;58286;-81
2023/06/05 11:12:50;;;;;;;4.70;1.20;;;;;;;28.05;29.54;101622.79;107489;1279;74719;-82
2023/06/05 11:15:36;;;;;;;7.50;1.30;;;;;;;27.35;28.90;101624.62;107493;1279;58776;-82
2023/06/05 11:18:30;;;;;;;4.60;1.40;;;;;;;26.87;30.06;101619.15;107465;1279;73333;-83
2023/06/05 11:20:57;;;;;;;6.00;1.40;;;;;;;26.69;30.48;101622.27;107520;1279;59704;-82